createdAt,value
2023-05-20T00:03:47.847Z,4.73
2023-05-20T00:08:51.739Z,3.83
2023-05-20T00:13:55.083Z,5.10
2023-05-20T00:18:58.830Z,5.93
2023-05-20T00:24:02.245Z,5.00
2023-05-20T00:29:05.612Z,7.73
2023-05-20T00:34:10.456Z,5.30
2023-05-20T00:39:13.839Z,6.37
2023-05-20T00:44:19.162Z,9.13
2023-05-20T00:49:24.204Z,5.90
2023-05-20T00:54:27.601Z,6.60
2023-05-20T00:59:31.370Z,8.37
2023-05-20T01:04:35.159Z,8.30
2023-05-20T01:09:38.523Z,7.33
2023-05-20T01:14:51.932Z,7.67
2023-05-20T01:19:57.036Z,7.63
2023-05-20T01:25:00.265Z,7.73
2023-05-20T01:30:03.939Z,7.07
2023-05-20T01:35:08.290Z,8.33
2023-05-20T01:40:17.064Z,7.37
2023-05-20T01:45:21.065Z,7.50
2023-05-20T01:50:24.485Z,6.93
2023-05-20T01:55:27.891Z,6.37
2023-05-20T02:00:34.519Z,6.53
2023-05-20T02:05:38.708Z,7.00
2023-05-20T02:10:42.444Z,7.23
2023-05-20T02:15:46.150Z,6.90
2023-05-20T02:20:49.483Z,8.07
2023-05-20T02:25:52.896Z,7.70
2023-05-20T02:30:56.379Z,5.77
2023-05-20T02:35:59.723Z,9.67
2023-05-20T02:41:04.930Z,10.17
2023-05-20T02:46:08.391Z,10.20
2023-05-20T02:51:11.961Z,8.23
2023-05-20T02:56:15.465Z,8.70
2023-05-20T03:01:18.994Z,6.63
2023-05-20T03:06:22.483Z,5.87
2023-05-20T03:11:26.815Z,6.37
2023-05-20T03:16:30.446Z,6.57
2023-05-20T03:21:34.821Z,9.80
2023-05-20T03:26:43.517Z,6.33
2023-05-20T03:31:47.465Z,8.03
2023-05-20T03:36:52.362Z,6.97
2023-05-20T03:41:56.004Z,9.00
2023-05-20T03:46:59.638Z,6.63
2023-05-20T03:52:04.103Z,5.40
2023-05-20T03:57:07.479Z,7.33
2023-05-20T04:02:11.600Z,6.73
2023-05-20T04:07:15.213Z,5.80
2023-05-20T04:12:19.753Z,8.70
2023-05-20T04:17:23.010Z,7.50
2023-05-20T04:22:27.231Z,8.87
2023-05-20T04:27:31.989Z,8.47
2023-05-20T04:32:35.197Z,6.83
2023-05-20T04:37:39.025Z,6.70
2023-05-20T04:42:42.501Z,7.27
2023-05-20T04:47:46.331Z,6.37
2023-05-20T04:52:49.861Z,7.50
2023-05-20T04:57:53.239Z,7.53
2023-05-20T05:02:56.874Z,7.17
2023-05-20T05:08:00.300Z,6.90
2023-05-20T05:13:04.060Z,7.40
2023-05-20T05:18:07.811Z,6.90
2023-05-20T05:23:11.128Z,6.03
2023-05-20T05:28:14.474Z,6.37
2023-05-20T05:33:18.293Z,7.53
2023-05-20T05:38:21.601Z,8.43
2023-05-20T05:43:24.764Z,6.73
2023-05-20T05:48:28.110Z,6.10
2023-05-20T05:53:31.364Z,4.97
2023-05-20T05:58:34.844Z,5.97
2023-05-20T06:03:38.323Z,5.97
2023-05-20T06:08:41.885Z,5.97
2023-05-20T06:13:45.252Z,8.60
2023-05-20T06:18:51.847Z,5.47
2023-05-20T06:23:55.233Z,9.23
2023-05-20T06:28:58.523Z,6.80
2023-05-20T06:34:01.868Z,9.90
2023-05-20T06:39:06.912Z,6.83
2023-05-20T06:44:10.469Z,7.93
2023-05-20T06:49:13.724Z,6.23
2023-05-20T06:54:16.943Z,7.77
2023-05-20T06:59:20.175Z,6.43
2023-05-20T07:04:23.624Z,6.60
2023-05-20T07:09:27.073Z,8.33
2023-05-20T07:14:30.358Z,9.27
2023-05-20T07:19:34.241Z,6.37
2023-05-20T07:24:37.714Z,6.57
2023-05-20T07:29:41.340Z,6.93
2023-05-20T07:34:44.672Z,9.37
2023-05-20T07:39:48.016Z,10.23
2023-05-20T07:44:51.315Z,9.27
2023-05-20T07:49:54.773Z,7.20
2023-05-20T07:54:58.471Z,4.63
2023-05-20T08:00:01.992Z,9.68
2023-05-20T08:05:06.188Z,6.75
2023-05-20T08:10:10.200Z,5.18
2023-05-20T08:15:13.619Z,12.65
2023-05-20T08:20:17.351Z,8.02
2023-05-20T08:25:20.748Z,6.72
2023-05-20T08:30:24.300Z,6.82
2023-05-20T08:35:27.837Z,6.15
2023-05-20T08:40:31.082Z,8.98
2023-05-20T08:45:37.511Z,10.38
2023-05-20T08:50:41.345Z,7.20
2023-05-20T08:55:49.444Z,7.53
2023-05-20T09:00:55.829Z,8.30
2023-05-20T09:06:09.167Z,7.70
2023-05-20T09:11:13.266Z,8.93
2023-05-20T09:16:16.853Z,7.45
2023-05-20T09:21:29.280Z,6.95
2023-05-20T09:26:33.290Z,7.88
2023-05-20T09:31:39.297Z,6.38
2023-05-20T09:36:45.298Z,6.35
2023-05-20T09:41:58.497Z,9.40
2023-05-20T09:47:02.922Z,6.45
2023-05-20T09:52:06.939Z,8.45
2023-05-20T09:57:10.492Z,8.63
2023-05-20T10:02:14.202Z,8.25
2023-05-20T10:07:41.176Z,6.38
2023-05-20T10:12:53.947Z,8.05
2023-05-20T10:18:25.222Z,6.55
2023-05-20T10:23:32.082Z,7.28
2023-05-20T10:28:36.922Z,7.85
2023-05-20T10:33:47.703Z,8.30
2023-05-20T10:38:56.117Z,11.65
2023-05-20T10:44:03.811Z,11.65
2023-05-20T10:49:23.336Z,10.32
2023-05-20T10:54:29.884Z,9.05
2023-05-20T10:59:33.714Z,8.38
2023-05-20T11:04:37.557Z,8.15
2023-05-20T11:09:49.859Z,9.35
2023-05-20T11:14:55.016Z,9.05
2023-05-20T11:20:01.327Z,8.52
2023-05-20T11:25:07.773Z,14.02
2023-05-20T11:30:18.875Z,10.95
2023-05-20T11:35:26.554Z,8.90
2023-05-20T11:40:38.902Z,9.13
2023-05-20T11:46:00.216Z,8.93
2023-05-20T11:51:04.062Z,9.40
2023-05-20T11:56:07.443Z,10.60
2023-05-20T12:01:21.557Z,20.75
2023-05-20T12:06:25.360Z,10.45
2023-05-20T12:11:28.636Z,15.68
2023-05-20T12:16:33.910Z,9.35
2023-05-20T12:21:37.347Z,8.55
2023-05-20T12:26:41.613Z,8.55
2023-05-20T12:31:45.132Z,10.43
2023-05-20T12:36:48.853Z,9.38
2023-05-20T12:41:52.613Z,10.52
2023-05-20T12:46:57.128Z,9.68
2023-05-20T12:52:03.578Z,8.75
2023-05-20T12:57:09.215Z,10.82
2023-05-20T13:02:12.571Z,9.82
2023-05-20T13:07:16.024Z,10.05
2023-05-20T13:12:19.376Z,10.52
2023-05-20T13:17:23.002Z,11.27
2023-05-20T13:22:26.249Z,10.65
2023-05-20T13:27:29.736Z,10.48
2023-05-20T13:32:32.977Z,16.30
2023-05-20T13:37:45.552Z,12.27
2023-05-20T13:42:48.847Z,15.75
2023-05-20T13:47:52.465Z,10.10
2023-05-20T13:52:55.852Z,10.35
2023-05-20T13:57:59.253Z,12.95
2023-05-20T14:03:05.187Z,11.02
2023-05-20T14:08:09.154Z,11.93
2023-05-20T14:13:12.455Z,10.02
2023-05-20T14:18:15.842Z,10.07
2023-05-20T14:23:19.134Z,11.10
2023-05-20T14:28:22.272Z,9.55
2023-05-20T14:33:25.953Z,9.23
2023-05-20T14:38:29.602Z,11.02
2023-05-20T14:43:33.262Z,12.25
2023-05-20T14:48:37.458Z,8.90
2023-05-20T14:53:40.721Z,10.70
2023-05-20T14:58:44.340Z,11.38
2023-05-20T15:03:47.785Z,11.07
2023-05-20T15:08:51.139Z,12.45
2023-05-20T15:13:54.452Z,32.83
2023-05-20T15:18:58.004Z,10.30
2023-05-20T15:24:01.679Z,13.50
2023-05-20T15:29:04.931Z,11.13
2023-05-20T15:34:08.250Z,9.15
2023-05-20T15:39:11.591Z,9.13
2023-05-20T15:44:14.888Z,11.25
2023-05-20T15:49:18.458Z,8.40
2023-05-20T15:54:21.779Z,10.70
2023-05-20T15:59:25.302Z,9.35
2023-05-20T16:04:28.631Z,9.18
2023-05-20T16:09:32.167Z,7.85
2023-05-20T16:14:35.976Z,7.60
2023-05-20T16:19:39.289Z,11.65
2023-05-20T16:24:42.768Z,10.23
2023-05-20T16:29:47.757Z,11.73
2023-05-20T16:34:51.302Z,8.65
2023-05-20T16:39:54.616Z,10.63
2023-05-20T16:44:58.147Z,8.88
2023-05-20T16:50:01.453Z,17.58
2023-05-20T16:55:08.619Z,17.95
2023-05-20T17:00:12.326Z,8.35
2023-05-20T17:05:17.008Z,9.95
2023-05-20T17:10:20.545Z,10.77
2023-05-20T17:15:23.987Z,9.85
2023-05-20T17:20:27.213Z,8.10
2023-05-20T17:25:30.577Z,11.05
2023-05-20T17:30:34.405Z,9.07
2023-05-20T17:35:38.095Z,13.15
2023-05-20T17:40:41.380Z,11.77
2023-05-20T17:45:45.160Z,9.57
2023-05-20T17:50:48.907Z,10.60
2023-05-20T17:55:53.458Z,14.05
2023-05-20T18:00:57.441Z,11.98
2023-05-20T18:06:02.221Z,22.25
2023-05-20T18:11:05.697Z,11.88
2023-05-20T18:16:09.612Z,12.27
2023-05-20T18:21:12.870Z,10.13
2023-05-20T18:26:16.538Z,10.63
2023-05-20T18:31:20.045Z,10.05
2023-05-20T18:36:23.396Z,9.70
2023-05-20T18:41:32.420Z,10.35
2023-05-20T18:46:48.942Z,13.52
2023-05-20T18:51:52.452Z,9.73
2023-05-20T18:56:56.336Z,9.40
2023-05-20T19:01:59.840Z,10.98
2023-05-20T19:07:03.183Z,11.57
2023-05-20T19:12:07.133Z,9.63
2023-05-20T19:17:10.854Z,13.93
2023-05-20T19:22:15.840Z,14.38
2023-05-20T19:27:20.553Z,14.02
2023-05-20T19:32:23.942Z,10.48
2023-05-20T19:37:27.728Z,9.05
2023-05-20T19:42:31.132Z,11.88
2023-05-20T19:47:34.909Z,8.55
2023-05-20T19:52:38.101Z,11.38
2023-05-20T19:57:41.492Z,15.60
2023-05-20T20:02:44.909Z,13.50
2023-05-20T20:07:48.508Z,10.65
2023-05-20T20:12:51.936Z,10.50
2023-05-20T20:17:55.487Z,13.73
2023-05-20T20:22:58.949Z,13.48
2023-05-20T20:28:02.166Z,11.77
2023-05-20T20:33:07.401Z,10.77
2023-05-20T20:38:11.147Z,13.10
2023-05-20T20:43:20.562Z,12.77
2023-05-20T20:48:28.483Z,12.30
2023-05-20T20:53:33.494Z,14.77
2023-05-20T20:58:37.983Z,12.73
2023-05-20T21:03:45.254Z,12.43
2023-05-20T21:08:48.882Z,14.07
2023-05-20T21:13:54.795Z,13.98
2023-05-20T21:18:58.228Z,13.83
2023-05-20T21:24:02.083Z,14.70
2023-05-20T21:29:06.591Z,15.90
2023-05-20T21:34:10.161Z,11.83
2023-05-20T21:39:13.482Z,14.70
2023-05-20T21:44:16.667Z,15.60
2023-05-20T21:49:20.426Z,14.30
2023-05-20T21:54:23.646Z,13.77
2023-05-20T21:59:29.521Z,15.63
2023-05-20T22:04:33.808Z,12.40
2023-05-20T22:09:36.983Z,17.90
2023-05-20T22:14:40.306Z,14.17
2023-05-20T22:19:43.786Z,14.10
2023-05-20T22:24:47.244Z,16.87
2023-05-20T22:29:51.195Z,18.40
2023-05-20T22:34:58.592Z,17.97
2023-05-20T22:40:01.997Z,20.23
2023-05-20T22:45:06.016Z,20.70
2023-05-20T22:50:09.862Z,23.37
2023-05-20T22:55:13.061Z,20.90
2023-05-20T23:00:16.674Z,19.30
2023-05-20T23:05:20.301Z,20.87
2023-05-20T23:10:24.936Z,19.27
2023-05-20T23:15:28.396Z,22.27
2023-05-20T23:20:31.680Z,22.63
2023-05-20T23:25:35.232Z,24.63
2023-05-20T23:30:38.807Z,26.07
2023-05-20T23:35:44.525Z,23.67
2023-05-20T23:40:48.538Z,24.50
2023-05-20T23:45:51.835Z,21.23
2023-05-20T23:50:55.088Z,20.00
2023-05-20T23:55:58.276Z,20.93
